createdAt,value
2022-08-05T00:01:35.713Z,24.51
2022-08-05T00:04:08.194Z,24.44
2022-08-05T00:06:37.058Z,24.37
2022-08-05T00:09:12.938Z,24.31
2022-08-05T00:11:49.229Z,24.25
2022-08-05T00:14:26.482Z,24.22
2022-08-05T00:16:56.331Z,24.18
2022-08-05T00:19:33.814Z,24.15
2022-08-05T00:22:11.322Z,24.11
2022-08-05T00:24:42.388Z,24.07
2022-08-05T00:27:14.035Z,24.02
2022-08-05T00:29:45.252Z,23.96
2022-08-05T00:32:15.415Z,23.91
2022-08-05T00:35:05.043Z,23.86
2022-08-05T00:37:51.158Z,23.80
2022-08-05T00:40:27.004Z,23.74
2022-08-05T00:43:01.355Z,23.68
2022-08-05T00:45:43.186Z,23.64
2022-08-05T00:48:27.407Z,23.57
2022-08-05T00:50:59.744Z,23.51
2022-08-05T00:54:01.456Z,23.46
2022-08-05T00:56:25.826Z,23.41
2022-08-05T00:58:55.908Z,23.38
2022-08-05T01:01:42.953Z,23.34
2022-08-05T01:04:15.866Z,23.31
2022-08-05T01:06:48.843Z,23.27
2022-08-05T01:09:20.057Z,23.24
2022-08-05T01:12:00.730Z,23.20
2022-08-05T01:14:48.693Z,23.18
2022-08-05T01:17:32.696Z,23.14
2022-08-05T01:20:35.729Z,23.09
2022-08-05T01:23:58.092Z,23.06
2022-08-05T01:26:32.828Z,23.05
2022-08-05T01:29:11.951Z,23.07
2022-08-05T01:31:46.809Z,23.06
2022-08-05T01:34:27.284Z,23.05
2022-08-05T01:37:05.446Z,23.04
2022-08-05T01:39:46.356Z,23.04
2022-08-05T01:42:18.670Z,23.02
2022-08-05T01:44:54.172Z,23.03
2022-08-05T01:47:32.538Z,23.02
2022-08-05T01:50:15.408Z,23.02
2022-08-05T01:52:50.158Z,23.00
2022-08-05T01:55:22.127Z,23.00
2022-08-05T01:58:12.975Z,22.99
2022-08-05T02:00:47.171Z,22.96
2022-08-05T02:03:32.014Z,22.96
2022-08-05T02:06:23.978Z,22.95
2022-08-05T02:08:58.563Z,22.91
2022-08-05T02:11:33.331Z,22.89
2022-08-05T02:14:14.437Z,22.87
2022-08-05T02:17:06.483Z,22.83
2022-08-05T02:19:47.422Z,22.83
2022-08-05T02:22:32.208Z,22.81
2022-08-05T02:25:12.627Z,22.79
2022-08-05T02:27:58.650Z,22.77
2022-08-05T02:30:38.115Z,22.73
2022-08-05T02:33:24.331Z,22.70
2022-08-05T02:36:06.612Z,22.67
2022-08-05T02:38:38.008Z,22.62
2022-08-05T02:41:17.198Z,22.58
2022-08-05T02:44:06.495Z,22.56
2022-08-05T02:46:53.721Z,22.53
2022-08-05T02:49:35.945Z,22.48
2022-08-05T02:52:11.486Z,22.47
2022-08-05T02:54:50.704Z,22.44
2022-08-05T02:58:19.849Z,22.38
2022-08-05T03:00:13.463Z,22.37
2022-08-05T03:02:46.490Z,22.35
2022-08-05T03:05:16.484Z,22.29
2022-08-05T03:08:04.551Z,22.27
2022-08-05T03:10:33.669Z,22.21
2022-08-05T03:15:29.431Z,22.12
2022-08-05T03:17:59.342Z,22.09
2022-08-05T03:20:27.957Z,22.05
2022-08-05T03:22:58.028Z,22.03
2022-08-05T03:25:33.700Z,21.99
2022-08-05T03:28:18.790Z,21.96
2022-08-05T03:30:49.306Z,21.94
2022-08-05T03:33:18.409Z,21.91
2022-08-05T03:35:48.336Z,21.88
2022-08-05T03:38:32.635Z,21.87
2022-08-05T03:41:08.130Z,21.86
2022-08-05T03:44:08.598Z,21.81
2022-08-05T03:46:29.501Z,21.78
2022-08-05T03:48:58.881Z,21.77
2022-08-05T03:52:38.733Z,21.77
2022-08-05T03:56:01.637Z,21.79
2022-08-05T03:57:46.828Z,21.82
2022-08-05T04:00:18.208Z,21.85
2022-08-05T04:02:57.619Z,21.88
2022-08-05T04:05:33.228Z,21.92
2022-08-05T04:08:29.928Z,21.96
2022-08-05T04:10:54.294Z,21.98
2022-08-05T04:13:50.590Z,22.02
2022-08-05T04:16:15.595Z,22.04
2022-08-05T04:18:54.115Z,22.04
2022-08-05T04:22:09.577Z,22.07
2022-08-05T04:24:19.378Z,22.08
2022-08-05T04:26:51.367Z,22.10
2022-08-05T04:29:19.900Z,22.14
2022-08-05T04:31:49.619Z,22.17
2022-08-05T04:34:32.473Z,22.21
2022-08-05T04:37:03.132Z,22.26
2022-08-05T04:39:32.418Z,22.33
2022-08-05T04:42:04.017Z,22.37
2022-08-05T04:44:32.441Z,22.38
2022-08-05T04:47:09.483Z,22.43
2022-08-05T04:50:01.402Z,22.48
2022-08-05T04:52:28.551Z,22.49
2022-08-05T04:54:57.959Z,22.49
2022-08-05T04:57:28.606Z,22.47
2022-08-05T04:59:58.982Z,22.52
2022-08-05T05:02:42.022Z,22.53
2022-08-05T05:05:25.978Z,22.51
2022-08-05T05:08:01.517Z,22.53
2022-08-05T05:10:35.444Z,22.60
2022-08-05T05:13:04.585Z,22.66
2022-08-05T05:15:56.494Z,22.73
2022-08-05T05:18:28.001Z,22.77
2022-08-05T05:20:59.464Z,22.73
2022-08-05T05:23:39.485Z,22.79
2022-08-05T05:26:17.299Z,22.87
2022-08-05T05:28:45.824Z,22.88
2022-08-05T05:31:14.585Z,22.88
2022-08-05T05:33:59.235Z,22.95
2022-08-05T05:36:29.999Z,23.01
2022-08-05T05:38:59.035Z,23.03
2022-08-05T05:41:40.073Z,23.09
2022-08-05T05:44:36.091Z,23.12
2022-08-05T05:47:03.968Z,23.25
2022-08-05T05:49:33.551Z,23.49
2022-08-05T05:52:07.436Z,23.54
2022-08-05T05:54:50.196Z,23.70
2022-08-05T05:57:20.566Z,23.88
2022-08-05T05:59:49.241Z,24.05
2022-08-05T06:02:32.565Z,24.22
2022-08-05T06:05:10.463Z,24.48
2022-08-05T06:07:57.885Z,24.63
2022-08-05T06:10:36.733Z,24.95
2022-08-05T06:13:12.907Z,25.19
2022-08-05T06:16:31.005Z,25.25
2022-08-05T06:18:31.400Z,25.12
2022-08-05T06:21:00.601Z,24.90
2022-08-05T06:23:43.468Z,24.71
2022-08-05T06:26:21.601Z,24.57
2022-08-05T06:28:52.635Z,24.41
2022-08-05T06:31:22.073Z,24.31
2022-08-05T06:34:06.985Z,24.17
2022-08-05T06:36:53.466Z,24.09
2022-08-05T06:39:27.365Z,23.80
2022-08-05T06:42:01.285Z,23.50
2022-08-05T06:44:32.449Z,23.31
2022-08-05T06:47:02.288Z,23.21
2022-08-05T06:50:02.042Z,23.17
2022-08-05T06:52:36.745Z,23.09
2022-08-05T06:55:08.082Z,23.10
2022-08-05T06:57:57.900Z,23.10
2022-08-05T07:00:25.511Z,23.14
2022-08-05T07:02:54.620Z,23.21
2022-08-05T07:05:31.823Z,23.26
2022-08-05T07:08:05.993Z,23.32
2022-08-05T07:10:39.544Z,23.34
2022-08-05T07:13:57.647Z,23.32
2022-08-05T07:17:59.725Z,23.36
2022-08-05T07:22:28.102Z,23.49
2022-08-05T07:25:23.584Z,23.57
2022-08-05T07:27:59.531Z,23.67
2022-08-05T07:30:38.339Z,23.74
2022-08-05T07:33:16.825Z,23.78
2022-08-05T07:36:03.258Z,23.82
2022-08-05T07:38:43.131Z,23.86
2022-08-05T07:42:07.927Z,23.91
2022-08-05T07:44:18.824Z,24.04
2022-08-05T07:46:49.317Z,24.10
2022-08-05T07:49:19.209Z,24.13
2022-08-05T07:51:54.309Z,24.15
2022-08-05T07:54:31.082Z,24.10
2022-08-05T07:57:16.706Z,24.17
2022-08-05T07:59:51.515Z,24.19
2022-08-05T08:02:26.677Z,24.29
2022-08-05T08:05:00.464Z,24.43
2022-08-05T08:07:39.268Z,24.56
2022-08-05T08:10:09.079Z,24.69
2022-08-05T08:12:49.227Z,24.82
2022-08-05T08:16:33.845Z,24.99
2022-08-05T08:18:13.707Z,25.08
2022-08-05T08:21:00.392Z,25.14
2022-08-05T08:24:01.968Z,25.16
2022-08-05T08:26:29.468Z,25.07
2022-08-05T08:29:21.823Z,25.06
2022-08-05T08:31:48.276Z,25.07
2022-08-05T08:34:18.693Z,25.27
2022-08-05T08:37:02.184Z,25.60
2022-08-05T08:39:37.451Z,25.98
2022-08-05T08:42:10.761Z,26.09
2022-08-05T08:45:25.370Z,26.08
2022-08-05T08:48:12.712Z,25.89
2022-08-05T08:51:03.751Z,25.67
2022-08-05T08:53:32.292Z,25.61
2022-08-05T08:56:06.166Z,25.45
2022-08-05T08:58:43.437Z,25.33
2022-08-05T09:01:18.012Z,25.18
2022-08-05T09:03:55.207Z,25.11
2022-08-05T09:06:27.997Z,25.16
2022-08-05T09:09:02.250Z,25.42
2022-08-05T09:11:51.698Z,25.72
2022-08-05T09:14:56.855Z,25.96
2022-08-05T09:17:41.041Z,26.09
2022-08-05T09:20:04.893Z,26.22
2022-08-05T09:23:19.494Z,26.35
2022-08-05T09:26:02.374Z,26.61
2022-08-05T09:28:34.023Z,26.78
2022-08-05T09:31:22.570Z,26.73
2022-08-05T09:34:01.702Z,26.52
2022-08-05T09:36:55.251Z,26.48
2022-08-05T09:39:39.530Z,26.52
2022-08-05T09:42:24.522Z,26.52
2022-08-05T09:45:17.493Z,26.47
2022-08-05T09:47:55.227Z,26.43
2022-08-05T09:50:44.086Z,26.40
2022-08-05T09:53:22.792Z,26.39
2022-08-05T09:56:12.720Z,26.46
2022-08-05T09:58:42.471Z,26.45
2022-08-05T10:01:22.668Z,26.57
2022-08-05T10:04:29.330Z,26.68
2022-08-05T10:07:01.690Z,26.76
2022-08-05T10:10:04.421Z,26.91
2022-08-05T10:12:51.469Z,27.00
2022-08-05T10:15:28.785Z,27.05
2022-08-05T10:18:17.369Z,27.10
2022-08-05T10:20:50.992Z,27.12
2022-08-05T10:23:55.747Z,27.14
2022-08-05T10:26:17.753Z,27.02
2022-08-05T10:28:47.344Z,26.99
2022-08-05T10:32:49.686Z,26.85
2022-08-05T10:34:07.964Z,26.74
2022-08-05T10:36:42.220Z,26.62
2022-08-05T10:39:24.890Z,26.52
2022-08-05T10:42:19.043Z,26.55
2022-08-05T10:45:01.340Z,26.64
2022-08-05T10:47:41.129Z,26.70
2022-08-05T10:50:35.219Z,26.79
2022-08-05T10:53:05.510Z,26.82
2022-08-05T10:56:03.468Z,26.88
2022-08-05T10:58:22.488Z,26.97
2022-08-05T11:01:08.660Z,27.01
2022-08-05T11:04:15.104Z,27.02
2022-08-05T11:07:01.623Z,27.05
2022-08-05T11:09:46.571Z,27.09
2022-08-05T11:12:54.361Z,27.09
2022-08-05T11:16:00.155Z,26.92
2022-08-05T11:18:30.174Z,26.71
2022-08-05T11:21:02.153Z,26.75
2022-08-05T11:23:33.423Z,26.75
2022-08-05T11:26:28.076Z,26.74
2022-08-05T11:29:02.411Z,26.76
2022-08-05T11:31:54.064Z,26.75
2022-08-05T11:34:50.963Z,26.75
2022-08-05T11:38:30.351Z,26.83
2022-08-05T11:41:35.359Z,26.93
2022-08-05T11:44:05.129Z,26.97
2022-08-05T11:47:09.197Z,27.10
2022-08-05T11:49:37.382Z,27.22
2022-08-05T11:52:11.547Z,27.19
2022-08-05T11:54:41.668Z,27.19
2022-08-05T11:57:25.679Z,27.24
2022-08-05T11:59:56.067Z,27.33
2022-08-05T12:02:32.970Z,27.45
2022-08-05T12:05:07.042Z,27.53
2022-08-05T12:08:03.226Z,27.52
2022-08-05T12:10:43.287Z,27.56
2022-08-05T12:13:48.422Z,27.70
2022-08-05T12:16:14.674Z,27.77
2022-08-05T12:18:48.960Z,27.92
2022-08-05T12:21:29.789Z,27.91
2022-08-05T12:24:11.753Z,27.89
2022-08-05T12:26:45.342Z,27.86
2022-08-05T12:29:22.998Z,27.78
2022-08-05T12:31:55.479Z,27.71
2022-08-05T12:34:30.239Z,27.56
2022-08-05T12:37:10.542Z,27.49
2022-08-05T12:39:42.245Z,27.44
2022-08-05T12:42:18.785Z,27.44
2022-08-05T12:44:47.960Z,27.47
2022-08-05T12:47:30.500Z,27.61
2022-08-05T12:50:03.228Z,27.71
2022-08-05T12:52:41.894Z,27.84
2022-08-05T12:55:26.564Z,27.97
2022-08-05T12:58:52.342Z,28.09
2022-08-05T13:02:01.083Z,28.25
2022-08-05T13:03:42.805Z,28.40
2022-08-05T13:06:18.025Z,28.54
2022-08-05T13:08:52.699Z,28.73
2022-08-05T13:12:01.553Z,28.79
2022-08-05T13:14:35.943Z,28.86
2022-08-05T13:17:20.524Z,28.94
2022-08-05T13:20:16.515Z,28.99
2022-08-05T13:22:53.513Z,29.03
2022-08-05T13:25:52.343Z,28.98
2022-08-05T13:28:10.806Z,28.89
2022-08-05T13:30:39.406Z,28.81
2022-08-05T13:33:07.861Z,28.73
2022-08-05T13:35:47.544Z,28.55
2022-08-05T13:38:30.782Z,28.46
2022-08-05T13:41:03.309Z,28.37
2022-08-05T13:43:43.258Z,28.32
2022-08-05T13:46:12.879Z,28.34
2022-08-05T13:48:58.390Z,28.44
2022-08-05T13:51:40.352Z,28.56
2022-08-05T13:54:15.516Z,28.71
2022-08-05T13:56:51.435Z,28.72
2022-08-05T13:59:27.294Z,28.71
2022-08-05T14:01:59.175Z,28.67
2022-08-05T14:05:00.656Z,28.50
2022-08-05T14:07:59.576Z,28.40
2022-08-05T14:10:28.168Z,28.32
2022-08-05T14:12:57.668Z,28.25
2022-08-05T14:16:05.045Z,28.28
2022-08-05T14:18:22.933Z,28.21
2022-08-05T14:20:52.923Z,28.15
2022-08-05T14:23:25.208Z,28.09
2022-08-05T14:25:58.551Z,28.06
2022-08-05T14:28:31.412Z,28.06
2022-08-05T14:31:01.602Z,28.06
2022-08-05T14:33:32.522Z,28.06
2022-08-05T14:36:21.494Z,28.09
2022-08-05T14:38:51.640Z,28.09
2022-08-05T14:41:19.837Z,28.09
2022-08-05T14:43:59.084Z,28.07
2022-08-05T14:46:31.742Z,28.04
2022-08-05T14:49:07.806Z,27.98
2022-08-05T14:51:42.518Z,27.90
2022-08-05T14:54:28.785Z,27.89
2022-08-05T14:56:59.521Z,27.85
2022-08-05T14:59:29.143Z,27.96
2022-08-05T15:01:58.348Z,28.02
2022-08-05T15:04:29.004Z,28.12
2022-08-05T15:06:57.506Z,28.16
2022-08-05T15:09:51.574Z,28.10
2022-08-05T15:12:16.897Z,28.01
2022-08-05T15:14:49.443Z,27.97
2022-08-05T15:17:45.712Z,27.92
2022-08-05T15:20:15.616Z,27.88
2022-08-05T15:22:54.113Z,27.84
2022-08-05T15:25:51.695Z,27.74
2022-08-05T15:28:14.745Z,27.56
2022-08-05T15:30:45.778Z,27.23
2022-08-05T15:33:56.903Z,26.93
2022-08-05T15:36:05.796Z,26.55
2022-08-05T15:38:46.454Z,26.29
2022-08-05T15:41:22.412Z,25.93
2022-08-05T15:43:52.548Z,25.46
2022-08-05T15:46:24.855Z,25.28
2022-08-05T15:49:00.584Z,24.97
2022-08-05T15:52:13.574Z,24.80
2022-08-05T15:54:34.419Z,24.69
2022-08-05T15:57:03.854Z,24.53
2022-08-05T15:59:37.057Z,24.25
2022-08-05T16:02:09.567Z,24.07
2022-08-05T16:04:43.459Z,23.99
2022-08-05T16:07:13.364Z,23.80
2022-08-05T16:09:43.600Z,23.57
2022-08-05T16:12:12.237Z,23.50
2022-08-05T16:14:40.640Z,23.36
2022-08-05T16:17:09.454Z,23.14
2022-08-05T16:20:05.378Z,23.09
2022-08-05T16:22:27.482Z,23.03
2022-08-05T16:25:05.283Z,22.90
2022-08-05T16:28:00.316Z,22.81
2022-08-05T16:30:29.889Z,22.66
2022-08-05T16:33:00.858Z,22.52
2022-08-05T16:35:33.541Z,22.36
2022-08-05T16:38:18.713Z,22.21
2022-08-05T16:40:55.559Z,22.03
2022-08-05T16:43:36.222Z,21.82
2022-08-05T16:46:23.807Z,21.86
2022-08-05T16:48:53.379Z,21.65
2022-08-05T16:51:24.260Z,21.54
2022-08-05T16:54:04.019Z,21.41
2022-08-05T16:56:41.532Z,21.26
2022-08-05T16:59:11.864Z,21.18
2022-08-05T17:01:53.028Z,21.23
2022-08-05T17:04:27.662Z,21.28
2022-08-05T17:07:01.874Z,21.21
2022-08-05T17:09:56.087Z,21.22
2022-08-05T17:12:22.713Z,21.19
2022-08-05T17:15:11.691Z,21.21
2022-08-05T17:17:55.186Z,21.15
2022-08-05T17:20:25.050Z,21.04
2022-08-05T17:22:55.784Z,21.05
2022-08-05T17:25:33.720Z,21.09
2022-08-05T17:28:09.809Z,21.06
2022-08-05T17:30:42.449Z,21.06
2022-08-05T17:33:11.143Z,21.03
2022-08-05T17:36:08.081Z,20.94
2022-08-05T17:38:28.267Z,20.85
2022-08-05T17:40:56.714Z,20.79
2022-08-05T17:43:46.857Z,20.76
2022-08-05T17:46:13.956Z,20.70
2022-08-05T17:48:43.229Z,20.65
2022-08-05T17:51:13.466Z,20.61
2022-08-05T17:53:50.816Z,20.61
2022-08-05T17:56:23.104Z,20.56
2022-08-05T17:58:57.055Z,20.55
2022-08-05T18:01:25.723Z,20.55
2022-08-05T18:03:59.804Z,20.50
2022-08-05T18:06:33.275Z,20.38
2022-08-05T18:09:03.728Z,20.38
2022-08-05T18:11:32.996Z,20.35
2022-08-05T18:14:07.452Z,20.33
2022-08-05T18:16:47.009Z,20.32
2022-08-05T18:19:22.831Z,20.31
2022-08-05T18:22:09.823Z,20.29
2022-08-05T18:24:40.423Z,20.25
2022-08-05T18:27:18.115Z,20.21
2022-08-05T18:29:53.524Z,20.15
2022-08-05T18:32:28.033Z,20.13
2022-08-05T18:34:57.818Z,20.11
2022-08-05T18:37:33.689Z,20.06
2022-08-05T18:41:50.932Z,19.99
2022-08-05T18:42:58.527Z,20.06
2022-08-05T18:45:41.578Z,20.01
2022-08-05T18:48:11.493Z,19.95
2022-08-05T18:52:06.709Z,19.93
2022-08-05T18:53:52.256Z,19.95
2022-08-05T18:56:21.822Z,19.98
2022-08-05T18:58:55.018Z,19.99
2022-08-05T19:01:47.611Z,19.96
2022-08-05T19:04:24.078Z,19.95
2022-08-05T19:06:53.511Z,19.92
2022-08-05T19:09:22.365Z,19.87
2022-08-05T19:11:59.600Z,19.84
2022-08-05T19:14:52.081Z,19.81
2022-08-05T19:17:19.123Z,19.77
2022-08-05T19:19:48.479Z,19.78
2022-08-05T19:22:17.857Z,19.79
2022-08-05T19:24:54.274Z,19.79
2022-08-05T19:27:30.449Z,19.82
2022-08-05T19:29:59.336Z,19.81
2022-08-05T19:32:28.282Z,19.86
2022-08-05T19:35:00.522Z,19.93
2022-08-05T19:38:04.472Z,19.95
2022-08-05T19:40:24.368Z,19.99
2022-08-05T19:43:04.913Z,19.99
2022-08-05T19:45:37.005Z,20.00
2022-08-05T19:48:06.711Z,19.99
2022-08-05T19:50:43.589Z,19.95
2022-08-05T19:53:12.480Z,19.92
2022-08-05T19:56:15.093Z,19.76
2022-08-05T19:58:30.174Z,19.62
2022-08-05T20:00:59.002Z,19.54
2022-08-05T20:03:37.973Z,19.49
2022-08-05T20:06:14.832Z,19.44
2022-08-05T20:08:47.445Z,19.41
2022-08-05T20:11:17.924Z,19.40
2022-08-05T20:13:58.110Z,19.37
2022-08-05T20:16:36.754Z,19.34
2022-08-05T20:19:05.874Z,19.36
2022-08-05T20:21:35.380Z,19.38
2022-08-05T20:24:06.894Z,19.36
2022-08-05T20:26:35.426Z,19.33
2022-08-05T20:29:03.895Z,19.37
2022-08-05T20:31:42.929Z,19.39
2022-08-05T20:34:20.792Z,19.45
2022-08-05T20:36:49.425Z,19.49
2022-08-05T20:39:18.776Z,19.46
2022-08-05T20:41:48.230Z,19.48
2022-08-05T20:44:30.363Z,19.51
2022-08-05T20:47:01.656Z,19.53
2022-08-05T20:49:37.804Z,19.48
2022-08-05T20:52:08.478Z,19.44
2022-08-05T20:54:55.553Z,19.40
2022-08-05T20:57:43.850Z,19.35
2022-08-05T21:00:40.522Z,19.29
2022-08-05T21:03:07.454Z,19.26
2022-08-05T21:05:53.708Z,19.23
2022-08-05T21:08:26.921Z,19.25
2022-08-05T21:11:12.701Z,19.24
2022-08-05T21:13:56.367Z,19.19
2022-08-05T21:16:30.799Z,19.18
2022-08-05T21:19:01.687Z,19.12
2022-08-05T21:21:44.058Z,19.14
2022-08-05T21:24:19.520Z,19.16
2022-08-05T21:26:53.426Z,19.15
2022-08-05T21:29:31.373Z,19.13
2022-08-05T21:32:01.272Z,19.12
2022-08-05T21:34:31.655Z,19.14
2022-08-05T21:37:01.669Z,19.12
2022-08-05T21:39:30.372Z,19.15
2022-08-05T21:42:03.095Z,19.16
2022-08-05T21:44:32.501Z,19.15
2022-08-05T21:47:01.346Z,19.14
2022-08-05T21:49:48.485Z,19.14
2022-08-05T21:52:27.101Z,19.07
2022-08-05T21:55:06.176Z,19.07
2022-08-05T21:57:42.581Z,19.05
2022-08-05T22:00:12.297Z,19.00
2022-08-05T22:02:41.642Z,18.97
2022-08-05T22:05:12.399Z,18.93
2022-08-05T22:07:59.082Z,18.90
2022-08-05T22:10:30.883Z,18.91
2022-08-05T22:13:09.300Z,18.88
2022-08-05T22:16:01.061Z,18.87
2022-08-05T22:18:36.356Z,18.87
2022-08-05T22:21:18.828Z,18.88
2022-08-05T22:24:09.160Z,18.89
2022-08-05T22:26:59.248Z,18.90
2022-08-05T22:29:30.902Z,18.91
2022-08-05T22:32:03.334Z,18.94
2022-08-05T22:34:32.708Z,18.95
2022-08-05T22:37:03.873Z,18.96
2022-08-05T22:39:34.502Z,18.99
2022-08-05T22:42:12.428Z,18.94
2022-08-05T22:44:53.670Z,18.95
2022-08-05T22:47:29.464Z,18.97
2022-08-05T22:50:21.399Z,18.97
2022-08-05T22:52:49.475Z,19.00
2022-08-05T22:55:21.475Z,18.98
2022-08-05T22:58:35.411Z,19.03
2022-08-05T23:01:04.919Z,19.02
2022-08-05T23:03:58.860Z,19.00
2022-08-05T23:06:26.613Z,18.97
2022-08-05T23:08:57.398Z,18.97
2022-08-05T23:11:46.687Z,18.93
2022-08-05T23:14:22.682Z,18.93
2022-08-05T23:17:24.584Z,18.94
2022-08-05T23:20:04.055Z,18.93
2022-08-05T23:22:34.004Z,18.96
2022-08-05T23:25:05.017Z,18.88
2022-08-05T23:27:42.360Z,18.87
2022-08-05T23:30:27.119Z,18.85
2022-08-05T23:32:57.773Z,18.80
2022-08-05T23:35:28.635Z,18.75
2022-08-05T23:38:03.115Z,18.68
2022-08-05T23:40:33.046Z,18.66
2022-08-05T23:43:02.907Z,18.55
2022-08-05T23:45:51.614Z,18.54
2022-08-05T23:48:20.227Z,18.58
2022-08-05T23:50:49.183Z,18.49
2022-08-05T23:53:22.805Z,18.49
2022-08-05T23:55:52.020Z,18.38
2022-08-05T23:58:31.794Z,18.36
